• Join FlightAware (Why Join?)
  • Login
  • US Flag 
08:23PM EDT


 

Airport Tracker/Info


-or-


 

Live Flight TrackerFlight Track Log ✈ N6822E ✈ 13-Aug-2014 ✈ KTLH - KPMP

Flight Track Log - Related Links

Times and Time Zones

All times are in EDT time to prevent confusion due to time zone crossing. See the N6822E flight status page for this flight to view local times or setup timezone preferences in your user account.

Time Position Orientation Groundspeed Altitude Reporting Facility
EDT Latitude Longitude Course Direction KTS MPH feet Rate Location/Type
07:07PM 30.1851 -84.1227 139° Southeast  Level Estimated
07:08PM 30.1497 -84.0848 139° Southeast  Level Estimated
07:09PM 30.1144 -84.0469 139° Southeast  Level Estimated
07:10PM 30.0768 -84.0121 141° Southeast  Level FlightAware Approximate
07:11PM 30.0392 -83.9773 141° Southeast  Level FlightAware Approximate
07:11PM 30.1258 -84.0214 140° Southeast 162 186 7,200  Level Jacksonville Center
07:12PM 30.0016 -83.9425 141° Southeast  Level FlightAware Approximate
07:12PM 30.0947 -83.9897 139° Southeast 169 194 7,800  Level Jacksonville Center
07:13PM 29.9640 -83.9077 141° Southeast  Level FlightAware Approximate
07:13PM 30.0617 -83.9558 138° Southeast 169 194 8,500  Level Jacksonville Center
07:14PM 29.9263 -83.8730 141° Southeast  Level FlightAware Approximate
07:14PM 30.0244 -83.9217 142° Southeast 169 194 8,900  Level Jacksonville Center
07:15PM 29.8911 -83.8351 140° Southeast  Level Estimated
07:15PM 29.9828 -83.8831 141° Southeast 169 194 9,000  Level Jacksonville Center
07:16PM 29.8542 -83.7992 140° Southeast  Level FlightAware Approximate
07:16PM 29.9394 -83.8442 142° Southeast 188 216 9,000  Level Jacksonville Center
07:17PM 29.8174 -83.7634 140° Southeast  Level FlightAware Approximate
07:17PM 29.8981 -83.8006 138° Southeast 198 228 9,000  Level Jacksonville Center
07:18PM 29.8544 -83.7594 141° Southeast 198 228 9,000  Level Jacksonville Center
07:19PM 29.8150 -83.7256 143° Southeast 198 228 9,000  Level Jacksonville Center
07:20PM 29.7756 -83.6847 138° Southeast 198 228 9,000  Level Jacksonville Center
07:21PM 29.7319 -83.6461 142° Southeast 198 228 9,000  Level Jacksonville Center
07:22PM 29.6903 -83.6075 141° Southeast 198 228 9,000  Level Jacksonville Center
07:23PM 29.6508 -83.5664 138° Southeast 198 228 9,000  Level Jacksonville Center
07:24PM 29.6072 -83.5281 143° Southeast 198 228 9,000  Level Jacksonville Center
07:25PM 29.5658 -83.4872 139° Southeast 198 228 9,000  Level Jacksonville Center
07:26PM 29.5242 -83.4464 140° Southeast 198 228 9,000  Level Jacksonville Center
07:27PM 29.4806 -83.4056 141° Southeast 198 228 9,000  Level Jacksonville Center
07:28PM 29.4389 -83.3694 143° Southeast 198 228 9,000  Level Jacksonville Center
07:29PM 29.3972 -83.3264 138° Southeast 198 228 9,000  Level Jacksonville Center
07:30PM 29.3536 -83.2881 143° Southeast 198 228 9,000  Level Jacksonville Center
07:31PM 29.3119 -83.2475 140° Southeast 198 228 9,000  Level Jacksonville Center
07:32PM 29.2683 -83.2092 143° Southeast 198 228 9,000 -60 Level Jacksonville Center
07:33PM 29.2267 -83.1686 140° Southeast 198 228 8,900 -60 Descending Jacksonville Center
07:34PM 29.1869 -83.1281 138° Southeast 198 228 8,900  Level Jacksonville Center
07:35PM 29.1433 -83.0875 141° Southeast 198 228 8,900  Level Jacksonville Center
07:36PM 29.1014 -83.0494 142° Southeast 198 228 9,000  Climbing Jacksonville Center
07:37PM 29.0597 -83.0114 141° Southeast 198 228 8,900 -60 Descending Jacksonville Center
07:38PM 29.0181 -82.9708 140° Southeast 198 228 8,900  Level Jacksonville Center
07:39PM 28.9764 -82.9306 140° Southeast 198 228 8,900  Level Jacksonville Center
07:40PM 28.9325 -82.8925 143° Southeast 198 228 8,900  Level Jacksonville Center
07:41PM 28.9242 -82.8783 124° Southeast 203 234 8,900  Level Jacksonville Center
07:41PM 28.9075 -82.8381 115° Southeast 193 222 8,900  Level Jacksonville Center
07:42PM 28.8928 -82.8142 125° Southeast 197 227 8,900  Level Jacksonville Center
07:42PM 28.8803 -82.7836 115° Southeast 193 222 8,900  Level Jacksonville Center
07:43PM 28.8636 -82.7503 120° Southeast 196 226 8,900  Level Jacksonville Center
07:43PM 28.8531 -82.7289 119° Southeast 193 222 8,900  Level Jacksonville Center
07:44PM 28.8258 -82.6769 121° Southeast 193 222 8,900  Level Jacksonville Center
07:45PM 28.7986 -82.6225 120° Southeast 193 222 8,900  Level Jacksonville Center
07:46PM 28.7736 -82.5706 119° Southeast 193 222 8,900  Level Jacksonville Center
07:47PM 28.7483 -82.5161 118° Southeast 193 222 8,900  Level Jacksonville Center
07:48PM 28.7128 -82.4736 134° Southeast 188 216 8,900  Level Jacksonville Center
07:49PM 28.6625 -82.4453 154° Southeast 183 211 8,900  Level Jacksonville Center
07:50PM 28.6164 -82.4194 154° Southeast 183 211 8,900  Level Jacksonville Center
07:52PM 28.5333 -82.3667 151° Southeast 189 217 9,000  Climbing Tampa TRACON
07:53PM 28.4833 -82.3333 150° Southeast 189 217 9,000  Level Tampa TRACON
07:54PM 28.4333 -82.3000 150° Southeast 189 217 9,000  Level Tampa TRACON
07:55PM 28.3833 -82.2667 150° Southeast 189 217 9,000  Level Tampa TRACON
07:56PM 28.3500 -82.2500 156° South 189 217 9,000  Level Tampa TRACON
07:57PM 28.3000 -82.2167 150° Southeast 187 215 9,000  Level Tampa TRACON
07:58PM 28.2500 -82.1833 150° Southeast 187 215 9,000  Level Tampa TRACON
07:59PM 28.2000 -82.1500 150° Southeast 189 217 9,000  Level Tampa TRACON
08:00PM 28.1667 -82.1333 156° South 190 219 9,000  Level Tampa TRACON
08:01PM 28.1167 -82.1000 150° Southeast 190 219 9,000  Level Tampa TRACON
08:02PM 28.0667 -82.0667 150° Southeast 191 220 9,000  Level Tampa TRACON
08:04PM 28.0000 -82.0264 152° Southeast 192 221 9,000  Level Miami Center
08:05PM 27.9478 -81.9847 145° Southeast 192 221 9,000  Level Miami Center
08:06PM 27.9069 -81.9453 140° Southeast 192 221 9,000  Level Miami Center
08:07PM 27.8689 -81.9025 135° Southeast 192 221 9,000  Level Miami Center
08:08PM 27.8311 -81.8603 135° Southeast 192 221 9,000  Level Miami Center
08:09PM 27.7944 -81.8156 133° Southeast 192 221 9,000  Level Miami Center
08:10PM 27.7572 -81.7725 134° Southeast 192 221 9,000  Level Miami Center
08:11PM 27.7203 -81.7292 134° Southeast 192 221 9,000  Level Miami Center
08:12PM 27.6764 -81.6956 146° Southeast 191 220 9,000  Level Miami Center
08:13PM 27.6314 -81.6628 147° Southeast 191 220 9,000  Level Miami Center
08:14PM 27.5875 -81.6294 146° Southeast 191 220 9,000  Level Miami Center
08:15PM 27.5431 -81.5956 146° Southeast 191 220 9,000  Level Miami Center
08:16PM 27.4906 -81.5547 145° Southeast 192 221 9,000  Level Miami Center
08:17PM 27.4467 -81.5211 146° Southeast 191 220 9,000  Level Miami Center
08:18PM 27.4033 -81.4872 145° Southeast 191 220 9,000  Level Miami Center
08:19PM 27.3603 -81.4539 145° Southeast 190 219 9,000  Level Miami Center
08:20PM 27.3161 -81.4206 146° Southeast 190 219 9,000  Level Miami Center
08:21PM 27.2725 -81.3875 146° Southeast 189 217 9,000  Level Miami Center
08:22PM 27.2236 -81.3489 145° Southeast 189 217 9,000  Level Miami Center
08:23PM 27.1817 -81.3178 147° Southeast 189 217 9,000  Level Miami Center
08:24PM 27.1358 -81.2833 146° Southeast 189 217 9,000  Level Miami Center
08:25PM 27.0903 -81.2481 145° Southeast 189 217 9,000  Level Miami Center
08:26PM 27.0489 -81.2164 146° Southeast 189 217 9,000  Level Miami Center
08:27PM 27.0022 -81.1831 148° Southeast 190 219 9,000  Level Miami Center
08:28PM 26.9564 -81.1464 145° Southeast 190 219 9,000 -300 Level Miami Center
08:29PM 26.9094 -81.1117 147° Southeast 203 234 8,500 -540 Descending Miami Center
08:30PM 26.8614 -81.0761 147° Southeast 207 238 8,000 -540 Descending Miami Center
08:31PM 26.8119 -81.0375 145° Southeast 206 237 7,500 -540 Descending Miami Center
08:32PM 26.7628 -81.0011 147° Southeast 205 236 6,900 -540 Descending Miami Center
08:33PM 26.7175 -80.9653 145° Southeast 205 236 6,500 -480 Descending Miami Center
08:34PM 26.6692 -80.9289 146° Southeast 203 234 6,000 -540 Descending Miami Center
08:36PM 26.6208 -80.8922 146° Southeast 202 232 5,500 -420 Descending Miami Center
08:36PM 26.6119 -80.8850 144° Southeast 197 227 5,500 -420 Level Miami Center
08:37PM 26.5783 -80.8603 147° Southeast 196 226 5,100 -480 Descending Miami Center
08:37PM 26.5539 -80.8408 145° Southeast 192 221 4,900 -420 Descending Miami Center
08:38PM 26.5322 -80.8256 148° Southeast 191 220 4,700 -420 Descending Miami Center
08:38PM 26.5081 -80.8067 145° Southeast 192 221 4,500 -540 Descending Miami Center
08:39PM 26.4856 -80.7889 145° Southeast 191 220 4,200 -420 Descending Miami Center
08:39PM 26.4642 -80.7728 146° Southeast 192 221 4,100 -240 Descending Miami Center
08:40PM 26.4419 -80.7553 145° Southeast 188 216 4,000 -120 Descending Miami Center
08:40PM 26.4203 -80.7414 150° Southeast 185 213 4,000  Level Miami Center
08:41PM 26.4000 -80.7247 144° Southeast 181 208 4,000  Level Miami Center
08:41PM 26.3764 -80.7097 150° Southeast 177 204 4,000  Level Miami Center
08:42PM 26.3569 -80.6978 151° Southeast 178 205 4,000  Level Miami Center
08:42PM 26.3339 -80.6831 150° Southeast 176 203 4,000 -240 Level Miami Center
08:43PM 26.3161 -80.6606 131° Southeast 184 212 3,800 -360 Descending Miami Center
08:43PM 26.3167 -80.6283 89° East 192 221 3,600 -540 Descending Miami Center
08:44PM 26.3197 -80.5994 83° East 195 224 3,300 -540 Descending Miami Center
08:44PM 26.3208 -80.5658 88° East 200 230 3,100 -300 Descending Miami Center
08:45PM 26.3231 -80.5383 85° East 198 228 3,000 -180 Descending Miami Center
08:45PM 26.3239 -80.5172 87° East 193 222 3,000  Level Miami Center
08:46PM 26.3267 -80.4817 85° East 185 213 3,000  Level Miami Center
08:46PM 26.3278 -80.4572 87° East 179 206 3,000  Level Miami Center
08:47PM 26.3314 -80.4256 83° East 184 212 3,000  Level Miami Center
08:47PM 26.3331 -80.4086 84° East 182 209 3,000  Level Miami Center
08:48PM 26.3436 -80.3669 74° East 182 209 3,000  Level Miami Center
08:48PM 26.3500 -80.3381 76° East 181 208 3,000  Level Miami Center
08:49PM 26.3567 -80.3125 74° East 182 209 3,000  Level Miami Center
08:49PM 26.3614 -80.2900 77° East 175 201 3,000  Level Miami Center
08:50PM 26.3678 -80.2622 76° East 168 193 3,000 -240 Level Miami Center
08:50PM 26.3664 -80.2439 95° East 154 177 2,800 -600 Descending Miami Center
08:51PM 26.3597 -80.2131 104° East 168 193 2,400 -540 Descending Miami Center
08:51PM 26.3486 -80.1914 120° Southeast 170 196 2,200 -540 Descending Miami Center
08:52PM 26.3258 -80.1772 151° Southeast 165 190 1,900 -600 Descending Miami Center
08:52PM 26.3106 -80.1653 145° Southeast 151 174 1,600 -720 Descending Miami Center
08:53PM 26.2964 -80.1514 139° Southeast 139 160 1,200 -720 Descending Miami Center
08:53PM 26.2867 -80.1447 148° Southeast 99 114 900 -660 Descending Miami Center
08:54PM 26.2667 -80.1294 146° Southeast 104 120 400 -540 Descending Miami Center
08:55PM 26.2503 -80.1133 139° Southeast 105 121 100 -420 Descending Miami Center
08:57PM 26.2474 -80.1112 90° East  Level Estimated